createdAt,value
2022-11-07T00:01:19.588Z,11.73
2022-11-07T00:03:46.359Z,19.50
2022-11-07T00:06:13.103Z,11.10
2022-11-07T00:08:39.930Z,15.52
2022-11-07T00:11:07.369Z,12.07
2022-11-07T00:13:34.321Z,17.25
2022-11-07T00:16:03.777Z,14.70
2022-11-07T00:18:30.662Z,19.63
2022-11-07T00:21:05.668Z,11.90
2022-11-07T00:23:32.918Z,13.85
2022-11-07T00:26:03.788Z,11.00
2022-11-07T00:28:33.949Z,12.73
2022-11-07T00:31:00.621Z,10.07
2022-11-07T00:33:27.328Z,10.52
2022-11-07T00:35:54.028Z,7.22
2022-11-07T00:38:20.762Z,9.07
2022-11-07T00:41:01.909Z,9.57
2022-11-07T00:43:29.641Z,7.28
2022-11-07T00:45:57.329Z,10.88
2022-11-07T00:48:24.428Z,8.02
2022-11-07T00:50:51.115Z,9.88
2022-11-07T00:53:18.118Z,8.13
2022-11-07T00:55:44.966Z,11.43
2022-11-07T00:58:14.081Z,12.32
2022-11-07T01:00:41.657Z,8.07
2022-11-07T01:03:27.088Z,10.38
2022-11-07T01:06:02.739Z,12.98
2022-11-07T01:08:30.089Z,8.52
2022-11-07T01:10:57.897Z,11.90
2022-11-07T01:13:25.834Z,10.20
2022-11-07T01:15:52.587Z,10.32
2022-11-07T01:18:19.600Z,20.10
2022-11-07T01:20:46.738Z,9.13
2022-11-07T01:23:13.949Z,18.08
2022-11-07T01:25:41.138Z,12.35
2022-11-07T01:28:08.863Z,12.55
2022-11-07T01:30:40.713Z,7.63
2022-11-07T01:33:07.767Z,8.45
2022-11-07T01:35:35.631Z,8.68
2022-11-07T01:38:02.560Z,6.30
2022-11-07T01:40:30.220Z,8.55
2022-11-07T01:42:57.027Z,9.13
2022-11-07T01:45:29.780Z,5.13
2022-11-07T01:48:01.058Z,8.90
2022-11-07T01:50:27.916Z,8.88
2022-11-07T01:52:56.106Z,12.27
2022-11-07T01:55:32.512Z,11.65
2022-11-07T01:58:02.593Z,9.90
2022-11-07T02:00:30.877Z,8.95
2022-11-07T02:03:20.770Z,10.70
2022-11-07T02:05:58.160Z,10.10
2022-11-07T02:08:25.757Z,6.28
2022-11-07T02:10:53.395Z,10.20
2022-11-07T02:13:26.052Z,9.43
2022-11-07T02:15:53.100Z,11.18
2022-11-07T02:18:21.232Z,13.45
2022-11-07T02:20:48.181Z,9.93
2022-11-07T02:23:24.857Z,8.38
2022-11-07T02:25:51.698Z,7.03
2022-11-07T02:28:21.374Z,12.85
2022-11-07T02:30:48.059Z,11.90
2022-11-07T02:33:23.337Z,9.13
2022-11-07T02:35:52.149Z,9.25
2022-11-07T02:38:26.491Z,15.10
2022-11-07T02:40:57.310Z,8.43
2022-11-07T02:43:28.183Z,7.95
2022-11-07T02:45:57.874Z,11.60
2022-11-07T02:48:32.267Z,7.85
2022-11-07T02:50:59.424Z,9.63
2022-11-07T02:53:26.050Z,8.27
2022-11-07T02:55:52.842Z,11.38
2022-11-07T02:58:19.465Z,14.95
2022-11-07T03:00:46.181Z,8.63
2022-11-07T03:03:13.475Z,10.23
2022-11-07T03:05:40.405Z,12.75
2022-11-07T03:08:07.183Z,10.80
2022-11-07T03:10:34.372Z,14.18
2022-11-07T03:13:02.095Z,10.63
2022-11-07T03:15:28.856Z,9.85
2022-11-07T03:17:55.539Z,7.50
2022-11-07T03:20:22.230Z,12.35
2022-11-07T03:22:48.872Z,14.07
2022-11-07T03:25:15.576Z,13.80
2022-11-07T03:27:51.393Z,8.60
2022-11-07T03:30:18.280Z,17.27
2022-11-07T03:32:44.977Z,15.73
2022-11-07T03:35:12.297Z,12.50
2022-11-07T03:37:39.050Z,12.00
2022-11-07T03:40:06.492Z,8.30
2022-11-07T03:42:41.245Z,12.48
2022-11-07T03:45:13.768Z,9.50
2022-11-07T03:47:41.908Z,11.10
2022-11-07T03:50:11.535Z,9.88
2022-11-07T03:52:38.321Z,8.70
2022-11-07T03:55:05.427Z,9.00
2022-11-07T03:57:32.105Z,10.23
2022-11-07T03:59:58.871Z,8.75
2022-11-07T04:02:25.778Z,19.20
2022-11-07T04:04:52.541Z,5.50
2022-11-07T04:07:19.255Z,7.93
2022-11-07T04:09:45.925Z,12.23
2022-11-07T04:12:31.065Z,15.23
2022-11-07T04:15:16.349Z,9.38
2022-11-07T04:17:43.077Z,8.43
2022-11-07T04:20:10.190Z,10.82
2022-11-07T04:22:37.218Z,7.85
2022-11-07T04:25:04.294Z,14.48
2022-11-07T04:27:43.038Z,7.95
2022-11-07T04:30:19.497Z,6.93
2022-11-07T04:32:54.415Z,9.52
2022-11-07T04:35:23.513Z,14.32
2022-11-07T04:37:50.464Z,9.63
2022-11-07T04:40:18.264Z,8.98
2022-11-07T04:42:45.961Z,12.20
2022-11-07T04:45:13.065Z,9.23
2022-11-07T04:47:40.797Z,9.90
2022-11-07T04:50:11.124Z,10.80
2022-11-07T04:52:38.106Z,6.70
2022-11-07T04:55:10.202Z,5.65
2022-11-07T04:57:36.944Z,8.30
2022-11-07T05:00:04.767Z,7.40
2022-11-07T05:02:31.592Z,8.52
2022-11-07T05:04:58.320Z,7.22
2022-11-07T05:07:25.013Z,9.68
2022-11-07T05:09:51.673Z,6.63
2022-11-07T05:12:18.386Z,8.70
2022-11-07T05:14:44.985Z,11.63
2022-11-07T05:17:16.317Z,10.88
2022-11-07T05:22:29.387Z,8.60
2022-11-07T05:24:56.199Z,8.23
2022-11-07T05:27:23.118Z,8.35
2022-11-07T05:29:49.982Z,7.00
2022-11-07T05:32:17.056Z,6.60
2022-11-07T05:34:43.853Z,5.13
2022-11-07T05:37:12.251Z,7.55
2022-11-07T05:39:39.291Z,7.75
2022-11-07T05:42:06.615Z,11.57
2022-11-07T05:44:33.780Z,7.43
2022-11-07T05:47:01.161Z,10.68
2022-11-07T05:49:27.908Z,6.15
2022-11-07T05:51:54.586Z,5.00
2022-11-07T05:54:21.362Z,8.77
2022-11-07T05:56:48.049Z,5.28
2022-11-07T05:59:15.192Z,14.65
2022-11-07T06:01:42.129Z,8.68
2022-11-07T06:04:09.176Z,8.95
2022-11-07T06:06:35.914Z,8.23
2022-11-07T06:09:03.155Z,5.47
2022-11-07T06:11:31.891Z,7.43
2022-11-07T06:13:59.011Z,9.82
2022-11-07T06:16:27.031Z,13.48
2022-11-07T06:18:53.733Z,10.15
2022-11-07T06:21:20.451Z,6.90
2022-11-07T06:23:47.252Z,5.35
2022-11-07T06:26:14.051Z,11.45
2022-11-07T06:28:40.739Z,11.00
2022-11-07T06:31:07.753Z,6.18
2022-11-07T06:33:34.490Z,10.02
2022-11-07T06:36:09.031Z,13.20
2022-11-07T06:38:36.727Z,7.40
2022-11-07T06:41:09.555Z,7.18
2022-11-07T06:43:36.895Z,9.20
2022-11-07T06:46:11.599Z,7.97
2022-11-07T06:48:38.901Z,8.27
2022-11-07T06:51:07.219Z,8.38
2022-11-07T06:53:34.027Z,8.98
2022-11-07T06:56:01.537Z,10.77
2022-11-07T06:58:28.359Z,10.52
2022-11-07T07:00:59.149Z,8.63
2022-11-07T07:03:25.927Z,3.40
2022-11-07T07:05:52.666Z,5.05
2022-11-07T07:08:19.409Z,6.85
2022-11-07T07:10:46.390Z,10.60
2022-11-07T07:13:14.372Z,10.02
2022-11-07T07:15:51.169Z,14.63
2022-11-07T07:18:19.494Z,8.68
2022-11-07T07:20:50.284Z,10.68
2022-11-07T07:23:18.852Z,5.35
2022-11-07T07:25:46.737Z,6.55
2022-11-07T07:28:14.144Z,12.88
2022-11-07T07:30:41.023Z,6.72
2022-11-07T07:33:07.976Z,6.03
2022-11-07T07:35:34.635Z,9.23
2022-11-07T07:38:01.348Z,15.50
2022-11-07T07:40:28.325Z,13.00
2022-11-07T07:42:55.032Z,7.68
2022-11-07T07:45:21.680Z,12.73
2022-11-07T07:47:48.430Z,12.90
2022-11-07T07:50:15.060Z,4.82
2022-11-07T07:52:41.821Z,6.22
2022-11-07T07:55:10.144Z,7.57
2022-11-07T07:57:42.903Z,8.45
2022-11-07T08:00:11.939Z,12.35
2022-11-07T08:02:39.212Z,10.48
2022-11-07T08:05:06.585Z,7.57
2022-11-07T08:07:33.477Z,5.82
2022-11-07T08:10:09.891Z,12.00
2022-11-07T08:12:49.004Z,15.70
2022-11-07T08:15:17.201Z,9.07
2022-11-07T08:17:44.491Z,6.75
2022-11-07T08:20:13.347Z,10.07
2022-11-07T08:22:40.102Z,7.20
2022-11-07T08:25:09.120Z,10.00
2022-11-07T08:27:36.686Z,13.45
2022-11-07T08:30:10.669Z,13.38
2022-11-07T08:32:40.588Z,11.90
2022-11-07T08:35:07.599Z,16.05
2022-11-07T08:37:34.239Z,12.32
2022-11-07T08:40:01.016Z,15.90
2022-11-07T08:42:27.652Z,12.43
2022-11-07T08:44:54.430Z,12.88
2022-11-07T08:47:21.147Z,18.85
2022-11-07T08:49:47.818Z,17.55
2022-11-07T08:52:14.468Z,19.20
2022-11-07T08:54:41.189Z,14.23
2022-11-07T08:57:08.131Z,12.63
2022-11-07T08:59:35.006Z,11.05
2022-11-07T09:02:44.731Z,10.82
2022-11-07T09:04:48.431Z,11.50
2022-11-07T09:07:15.251Z,16.05
2022-11-07T09:09:42.102Z,15.15
2022-11-07T09:12:09.348Z,12.20
2022-11-07T09:14:36.181Z,20.23
2022-11-07T09:17:02.967Z,14.45
2022-11-07T09:19:29.710Z,12.52
2022-11-07T09:21:57.504Z,21.75
2022-11-07T09:24:24.173Z,12.70
2022-11-07T09:26:50.875Z,13.80
2022-11-07T09:29:17.597Z,19.60
2022-11-07T09:31:44.286Z,18.38
2022-11-07T09:34:10.992Z,15.88
2022-11-07T09:36:37.618Z,12.82
2022-11-07T09:39:04.411Z,14.45
2022-11-07T09:41:31.032Z,10.55
2022-11-07T09:44:12.996Z,12.13
2022-11-07T09:46:45.760Z,17.08
2022-11-07T09:49:46.058Z,24.13
2022-11-07T09:52:38.591Z,16.25
2022-11-07T09:55:23.914Z,21.13
2022-11-07T09:57:55.512Z,17.42
2022-11-07T10:00:23.094Z,15.60
2022-11-07T10:02:58.055Z,28.20
2022-11-07T10:05:41.125Z,19.50
2022-11-07T10:08:27.942Z,23.60
2022-11-07T10:11:00.935Z,22.92
2022-11-07T10:13:39.695Z,20.75
2022-11-07T10:16:09.610Z,17.48
2022-11-07T10:19:01.176Z,19.02
2022-11-07T10:24:40.399Z,20.42
2022-11-07T10:27:11.408Z,18.67
2022-11-07T10:29:52.471Z,23.33
2022-11-07T10:32:19.425Z,25.55
2022-11-07T10:35:00.542Z,14.82
2022-11-07T10:37:27.300Z,18.35
2022-11-07T10:39:54.002Z,15.07
2022-11-07T10:42:24.386Z,16.95
2022-11-07T10:44:53.488Z,18.00
2022-11-07T10:47:25.459Z,15.95
2022-11-07T10:50:16.664Z,11.77
2022-11-07T10:52:55.756Z,14.60
2022-11-07T10:55:23.625Z,16.33
2022-11-07T10:57:59.607Z,13.70
2022-11-07T11:00:41.294Z,17.55
2022-11-07T11:03:29.021Z,20.98
2022-11-07T11:06:28.022Z,13.65
2022-11-07T11:08:55.105Z,19.20
2022-11-07T11:11:21.763Z,9.65
2022-11-07T11:13:49.394Z,16.33
2022-11-07T11:16:23.014Z,20.98
2022-11-07T11:18:55.331Z,11.63
2022-11-07T11:21:23.274Z,10.55
2022-11-07T11:23:50.589Z,13.25
2022-11-07T11:26:33.577Z,13.80
2022-11-07T11:29:15.801Z,14.00
2022-11-07T11:31:51.257Z,13.82
2022-11-07T11:34:36.583Z,15.05
2022-11-07T11:37:16.048Z,22.92
2022-11-07T11:39:45.358Z,18.33
2022-11-07T11:42:25.108Z,18.10
2022-11-07T11:44:55.552Z,21.75
2022-11-07T11:47:37.140Z,19.03
2022-11-07T11:52:43.108Z,24.27
2022-11-07T11:55:15.238Z,28.80
2022-11-07T11:58:13.087Z,17.83
2022-11-07T12:00:56.485Z,29.08
2022-11-07T12:04:09.353Z,25.17
2022-11-07T12:06:43.519Z,33.10
2022-11-07T12:09:18.264Z,28.17
2022-11-07T12:12:08.861Z,26.98
2022-11-07T12:14:41.298Z,23.85
2022-11-07T12:17:21.170Z,25.45
2022-11-07T12:20:13.985Z,18.60
2022-11-07T12:22:50.957Z,22.73
2022-11-07T12:25:30.358Z,21.85
2022-11-07T12:28:24.972Z,28.02
2022-11-07T12:31:14.644Z,20.63
2022-11-07T12:33:56.594Z,20.42
2022-11-07T12:36:41.453Z,21.67
2022-11-07T12:39:27.724Z,26.10
2022-11-07T12:41:58.255Z,22.55
2022-11-07T12:44:31.553Z,29.08
2022-11-07T12:47:01.049Z,22.50
2022-11-07T12:49:36.699Z,20.15
2022-11-07T12:52:30.353Z,26.38
2022-11-07T12:55:03.797Z,23.77
2022-11-07T12:57:37.647Z,24.17
2022-11-07T13:00:15.682Z,20.40
2022-11-07T13:03:10.062Z,30.05
2022-11-07T13:05:39.450Z,24.30
2022-11-07T13:08:34.807Z,20.92
2022-11-07T13:11:16.194Z,21.95
2022-11-07T13:14:01.561Z,26.02
2022-11-07T13:16:30.983Z,22.40
2022-11-07T13:19:43.967Z,19.70
2022-11-07T13:22:13.760Z,26.15
2022-11-07T13:24:54.776Z,22.17
2022-11-07T13:27:32.300Z,25.98
2022-11-07T13:30:18.079Z,22.02
2022-11-07T13:32:49.484Z,25.83
2022-11-07T13:35:28.226Z,26.70
2022-11-07T13:38:07.284Z,24.75
2022-11-07T13:40:44.696Z,29.30
2022-11-07T13:43:38.455Z,22.48
2022-11-07T13:46:09.253Z,25.13
2022-11-07T13:48:52.986Z,23.10
2022-11-07T13:51:26.204Z,25.33
2022-11-07T13:54:01.678Z,24.60
2022-11-07T13:56:43.900Z,28.45
2022-11-07T13:59:19.144Z,26.38
2022-11-07T14:01:46.031Z,25.33
2022-11-07T14:04:18.348Z,22.25
2022-11-07T14:06:45.798Z,20.45
2022-11-07T14:09:16.975Z,18.50
2022-11-07T14:11:44.921Z,25.52
2022-11-07T14:14:13.009Z,24.52
2022-11-07T14:16:40.286Z,26.20
2022-11-07T14:19:32.953Z,25.95
2022-11-07T14:22:00.285Z,21.85
2022-11-07T14:24:32.658Z,15.02
2022-11-07T14:27:12.840Z,17.50
2022-11-07T14:29:39.608Z,24.25
2022-11-07T14:32:07.393Z,19.58
2022-11-07T14:34:44.873Z,18.70
2022-11-07T14:37:15.424Z,20.15
2022-11-07T14:39:42.161Z,26.55
2022-11-07T14:42:17.970Z,19.35
2022-11-07T14:44:54.371Z,23.05
2022-11-07T14:47:25.347Z,23.05
2022-11-07T14:49:53.377Z,33.63
2022-11-07T14:52:40.726Z,34.03
2022-11-07T14:55:19.040Z,17.88
2022-11-07T14:57:46.337Z,29.55
2022-11-07T15:00:19.394Z,34.08
2022-11-07T15:02:48.960Z,28.50
2022-11-07T15:05:44.330Z,29.92
2022-11-07T15:08:33.889Z,37.65
2022-11-07T15:11:08.193Z,34.35
2022-11-07T15:13:35.343Z,35.65
2022-11-07T15:16:06.152Z,24.67
2022-11-07T15:18:39.628Z,41.50
2022-11-07T15:21:06.979Z,30.75
2022-11-07T15:26:38.776Z,23.63
2022-11-07T15:29:21.513Z,29.60
2022-11-07T15:31:49.155Z,23.38
2022-11-07T15:34:33.663Z,28.73
2022-11-07T15:37:17.470Z,24.73
2022-11-07T15:39:44.331Z,31.45
2022-11-07T15:42:10.993Z,30.98
2022-11-07T15:44:38.278Z,25.17
2022-11-07T15:47:06.161Z,34.00
2022-11-07T15:49:34.158Z,37.55
2022-11-07T15:52:01.584Z,28.02
2022-11-07T15:54:28.264Z,26.58
2022-11-07T15:57:01.619Z,26.10
2022-11-07T15:59:32.829Z,27.20
2022-11-07T16:02:01.162Z,39.00
2022-11-07T16:04:27.945Z,28.42
2022-11-07T16:06:54.655Z,29.60
2022-11-07T16:09:24.732Z,23.52
2022-11-07T16:11:51.454Z,33.80
2022-11-07T16:17:11.876Z,23.25
2022-11-07T16:19:38.683Z,26.50
2022-11-07T16:22:05.336Z,27.25
2022-11-07T16:24:32.005Z,33.72
2022-11-07T16:26:58.820Z,28.13
2022-11-07T16:29:26.021Z,24.15
2022-11-07T16:31:52.743Z,29.60
2022-11-07T16:34:19.440Z,50.45
2022-11-07T16:36:47.365Z,23.55
2022-11-07T16:39:20.639Z,27.25
2022-11-07T16:41:48.909Z,26.50
2022-11-07T16:44:17.038Z,29.55
2022-11-07T16:46:46.026Z,30.90
2022-11-07T16:49:19.685Z,27.10
2022-11-07T16:51:46.434Z,23.25
2022-11-07T16:54:13.141Z,17.58
2022-11-07T16:56:40.141Z,19.63
2022-11-07T16:59:07.960Z,25.92
2022-11-07T17:01:36.141Z,31.77
2022-11-07T17:04:03.809Z,22.35
2022-11-07T17:06:33.593Z,31.20
2022-11-07T17:09:08.990Z,23.42
2022-11-07T17:11:39.119Z,23.40
2022-11-07T17:14:05.821Z,22.15
2022-11-07T17:16:36.615Z,22.95
2022-11-07T17:19:05.087Z,29.38
2022-11-07T17:21:34.379Z,26.45
2022-11-07T17:24:01.474Z,20.50
2022-11-07T17:26:34.636Z,13.10
2022-11-07T17:29:02.137Z,18.02
2022-11-07T17:31:28.816Z,8.57
2022-11-07T17:33:55.678Z,12.52
2022-11-07T17:36:25.351Z,12.57
2022-11-07T17:38:52.997Z,9.52
2022-11-07T17:41:20.319Z,14.07
2022-11-07T17:43:48.006Z,16.55
2022-11-07T17:46:26.134Z,29.45
2022-11-07T17:48:56.235Z,28.85
2022-11-07T17:51:27.408Z,25.15
2022-11-07T17:53:55.800Z,16.08
2022-11-07T17:56:25.199Z,11.68
2022-11-07T17:59:00.344Z,13.98
2022-11-07T18:01:31.403Z,14.80
2022-11-07T18:06:27.047Z,22.30
2022-11-07T18:08:56.268Z,13.95
2022-11-07T18:11:25.958Z,29.95
2022-11-07T18:13:54.622Z,22.48
2022-11-07T18:16:33.853Z,20.63
2022-11-07T18:19:02.346Z,25.63
2022-11-07T18:21:29.890Z,29.10
2022-11-07T18:23:57.290Z,19.25
2022-11-07T18:26:30.933Z,23.88
2022-11-07T18:29:02.763Z,26.15
2022-11-07T18:31:29.932Z,25.05
2022-11-07T18:34:02.002Z,37.95
2022-11-07T18:36:30.764Z,35.95
2022-11-07T18:39:06.460Z,27.50
2022-11-07T18:41:33.261Z,31.20
2022-11-07T18:44:04.429Z,38.65
2022-11-07T18:46:32.487Z,33.83
2022-11-07T18:49:00.067Z,34.90
2022-11-07T18:51:26.970Z,43.10
2022-11-07T18:53:54.111Z,34.80
2022-11-07T18:56:21.676Z,38.70
2022-11-07T18:58:48.419Z,35.78
2022-11-07T19:01:18.152Z,32.65
2022-11-07T19:03:45.858Z,31.48
2022-11-07T19:06:17.759Z,37.13
2022-11-07T19:08:47.360Z,38.60
2022-11-07T19:11:16.795Z,32.58
2022-11-07T19:13:47.690Z,25.70
2022-11-07T19:16:16.846Z,24.88
2022-11-07T19:18:49.083Z,28.30
2022-11-07T19:21:19.893Z,37.50
2022-11-07T19:23:47.940Z,31.30
2022-11-07T19:26:14.597Z,26.13
2022-11-07T19:28:41.770Z,25.60
2022-11-07T19:31:12.921Z,36.10
2022-11-07T19:36:15.608Z,30.60
2022-11-07T19:38:43.135Z,36.97
2022-11-07T19:41:11.279Z,33.60
2022-11-07T19:43:39.201Z,33.60
2022-11-07T19:46:08.279Z,33.75
2022-11-07T19:48:34.984Z,31.38
2022-11-07T19:51:09.323Z,22.02
2022-11-07T19:53:36.001Z,34.08
2022-11-07T19:56:08.632Z,34.83
2022-11-07T19:58:37.156Z,27.90
2022-11-07T20:01:11.088Z,26.42
2022-11-07T20:03:37.904Z,32.78
2022-11-07T20:06:09.031Z,32.50
2022-11-07T20:08:35.740Z,31.08
2022-11-07T20:11:02.741Z,46.00
2022-11-07T20:13:29.586Z,39.47
2022-11-07T20:15:57.633Z,42.65
2022-11-07T20:18:24.363Z,34.50
2022-11-07T20:20:51.122Z,55.08
2022-11-07T20:23:18.088Z,39.35
2022-11-07T20:25:45.123Z,27.05
2022-11-07T20:28:11.873Z,33.00
2022-11-07T20:30:41.291Z,25.38
2022-11-07T20:33:08.000Z,34.00
2022-11-07T20:35:34.705Z,27.05
2022-11-07T20:38:01.344Z,23.50
2022-11-07T20:40:29.467Z,33.97
2022-11-07T20:42:56.164Z,29.80
2022-11-07T20:45:22.892Z,27.98
2022-11-07T20:47:50.655Z,25.08
2022-11-07T20:50:17.479Z,33.35
2022-11-07T20:52:44.274Z,36.35
2022-11-07T20:55:11.727Z,31.00
2022-11-07T20:57:38.409Z,27.35
2022-11-07T21:00:05.503Z,35.75
2022-11-07T21:02:32.283Z,30.15
2022-11-07T21:07:48.202Z,29.33
2022-11-07T21:10:14.984Z,28.25
2022-11-07T21:12:42.828Z,31.75
2022-11-07T21:15:10.545Z,31.45
2022-11-07T21:17:37.353Z,25.58
2022-11-07T21:20:05.049Z,23.48
2022-11-07T21:22:31.934Z,24.95
2022-11-07T21:24:58.599Z,23.67
2022-11-07T21:27:25.315Z,28.45
2022-11-07T21:29:51.946Z,25.77
2022-11-07T21:32:18.590Z,27.10
2022-11-07T21:34:46.286Z,28.38
2022-11-07T21:37:13.022Z,22.40
2022-11-07T21:39:39.965Z,33.05
2022-11-07T21:42:06.746Z,29.75
2022-11-07T21:44:33.784Z,30.30
2022-11-07T21:47:00.583Z,31.10
2022-11-07T21:49:27.233Z,33.75
2022-11-07T21:51:54.079Z,33.25
2022-11-07T21:54:20.818Z,26.30
2022-11-07T21:56:47.930Z,30.85
2022-11-07T21:59:14.963Z,24.70
2022-11-07T22:01:42.117Z,31.90
2022-11-07T22:04:12.369Z,30.65
2022-11-07T22:06:43.101Z,20.40
2022-11-07T22:09:15.402Z,24.40
2022-11-07T22:11:42.220Z,30.25
2022-11-07T22:14:13.478Z,36.97
2022-11-07T22:16:41.903Z,35.90
2022-11-07T22:19:12.482Z,32.15
2022-11-07T22:21:40.368Z,31.10
2022-11-07T22:24:07.463Z,28.63
2022-11-07T22:26:34.215Z,31.05
2022-11-07T22:29:00.917Z,40.90
2022-11-07T22:31:30.351Z,31.35
2022-11-07T22:33:58.625Z,32.30
2022-11-07T22:36:25.609Z,25.25
2022-11-07T22:38:52.562Z,43.90
2022-11-07T22:41:22.240Z,25.00
2022-11-07T22:43:49.323Z,30.80
2022-11-07T22:46:18.696Z,30.08
2022-11-07T22:48:46.529Z,28.95
2022-11-07T22:51:19.601Z,31.38
2022-11-07T22:53:46.819Z,31.88
2022-11-07T22:56:18.799Z,40.30
2022-11-07T22:58:46.937Z,37.70
2022-11-07T23:01:18.054Z,30.90
2022-11-07T23:03:45.763Z,35.50
2022-11-07T23:06:12.723Z,31.95
2022-11-07T23:08:39.676Z,37.58
2022-11-07T23:11:44.794Z,33.83
2022-11-07T23:14:02.707Z,33.92
2022-11-07T23:16:32.721Z,36.38
2022-11-07T23:19:01.871Z,31.83
2022-11-07T23:21:29.260Z,27.98
2022-11-07T23:24:00.237Z,37.40
2022-11-07T23:26:34.531Z,25.60
2022-11-07T23:29:15.888Z,36.50
2022-11-07T23:31:45.551Z,34.85
2022-11-07T23:34:13.094Z,37.63
2022-11-07T23:36:43.969Z,32.78
2022-11-07T23:39:17.039Z,40.10
2022-11-07T23:41:44.852Z,36.03
2022-11-07T23:44:12.075Z,28.83
2022-11-07T23:46:57.329Z,35.85
2022-11-07T23:49:42.488Z,32.55
2022-11-07T23:52:09.436Z,38.85
2022-11-07T23:54:54.940Z,47.83
2022-11-07T23:57:21.656Z,28.70
